Airfield :
LOGIN :

Register | Disclaimer

   EN    FR    IT 

 










Legend :    VFR   Marginal VFR   IFR   Intensive IFR   Very Intensive IFR
Visi :
Ceiling :
>= 8 km
>= 3000ft
5 to 8 km
1000 to 3000 ft
1500m to 5 km
500 to 1000 ft
800 to 1500m
200 to 500 ft
< 800m
< 200 ft
Symbols :   Thunderstorms  Fog  Heavy snow  Heavy precipitations  Wind > 20 kt
SIGMETs :     Misc.  Thunderstorms  Icing  Turbulence  Mountain Waves  Volcanic Ashes






- Airport Elevation : 187 ft


ETNW - Wunstorf AB

CURRENT METAR :
  • 260520Z 33001KT 9999 FEW180 14/13 Q1017 BLU+

EXPIRED METARs :
  • 260420Z 31001KT 9999 FEW180 12/12 Q1017 BLU+
  • 260340Z 21002KT 9999 MIFG FEW180 12/12 Q1017 BLU+
  • 260320Z 17003KT 0800 FG FEW180 12/12 Q1017 AMB
  • 260220Z 21003KT 9999 MIFG FEW110 13/12 Q1017 BLU+
  • 260120Z 04001KT 9999 SCT110 SCT180 13/12 Q1017 BLU+

TAF TAF ETNW
Valid from the 26 at 05:00 until the 27 at 05:00 UTC


260411Z 2605/2705 22005KT 9999 NSW SCT030 BKN240
PROB30 2605/2606 VRB02KT 1000 MIFG SCT003 SCT240
TEMPO 2612/2622 14010G20KT 3000 SHRA BKN020CB
PROB30 2613/2617 VRB15G25KT 2000 TSRA BKN020CB



MET'MAP, your aeronautical weather chart ! - Copyright ORBIFLY December 2007 - Disclaimer

ORBIFLY MET'MAP TEAM :

Programming & Development : Alexandra Zaïnal
Original concept : Baudouin d'Aumeries
Technical & hardware support : Manuel Goepfert
Assistance : Marc-Olivier Méhu




SOURCES & CREDITS :

   NOAA